createdAt,value
2023-02-19T00:01:33.052Z,5.63
2023-02-19T00:04:11.021Z,6.85
2023-02-19T00:06:37.860Z,7.10
2023-02-19T00:09:05.395Z,6.40
2023-02-19T00:11:34.436Z,5.90
2023-02-19T00:14:03.304Z,5.65
2023-02-19T00:16:39.005Z,5.35
2023-02-19T00:19:11.718Z,5.22
2023-02-19T00:21:38.521Z,5.40
2023-02-19T00:24:07.017Z,4.07
2023-02-19T00:26:34.719Z,4.18
2023-02-19T00:29:02.369Z,4.15
2023-02-19T00:31:32.998Z,4.15
2023-02-19T00:34:05.694Z,4.30
2023-02-19T00:36:37.908Z,3.93
2023-02-19T00:39:07.571Z,4.53
2023-02-19T00:41:34.678Z,4.00
2023-02-19T00:44:05.319Z,4.00
2023-02-19T00:46:48.627Z,4.03
2023-02-19T00:49:21.287Z,3.90
2023-02-19T00:51:49.048Z,4.78
2023-02-19T00:54:16.853Z,4.88
2023-02-19T00:56:43.640Z,5.05
2023-02-19T00:59:11.000Z,5.28
2023-02-19T01:01:38.264Z,5.03
2023-02-19T01:04:06.752Z,4.50
2023-02-19T01:06:34.670Z,4.47
2023-02-19T01:09:01.651Z,5.45
2023-02-19T01:11:28.524Z,5.45
2023-02-19T01:13:59.638Z,5.33
2023-02-19T01:16:27.612Z,6.97
2023-02-19T01:18:54.890Z,5.53
2023-02-19T01:21:24.927Z,6.07
2023-02-19T01:23:53.289Z,6.35
2023-02-19T01:26:22.990Z,5.97
2023-02-19T01:28:50.370Z,5.57
2023-02-19T01:31:23.072Z,5.35
2023-02-19T01:33:52.623Z,5.63
2023-02-19T01:36:19.788Z,5.60
2023-02-19T01:38:47.368Z,5.90
2023-02-19T01:41:17.296Z,5.72
2023-02-19T01:44:04.095Z,5.63
2023-02-19T01:46:35.308Z,5.00
2023-02-19T01:49:16.251Z,5.45
2023-02-19T01:51:48.780Z,6.17
2023-02-19T01:54:20.489Z,5.63
2023-02-19T01:56:48.692Z,5.68
2023-02-19T01:59:16.845Z,5.60
2023-02-19T02:01:43.925Z,5.47
2023-02-19T02:04:13.435Z,4.93
2023-02-19T02:07:01.505Z,5.60
2023-02-19T02:09:49.372Z,5.63
2023-02-19T02:12:16.283Z,5.20
2023-02-19T02:14:47.831Z,4.85
2023-02-19T02:18:02.553Z,4.97
2023-02-19T02:20:38.594Z,4.68
2023-02-19T02:23:26.884Z,4.90
2023-02-19T02:25:56.402Z,4.53
2023-02-19T02:28:39.096Z,4.80
2023-02-19T02:31:19.327Z,4.03
2023-02-19T02:34:01.203Z,4.65
2023-02-19T02:36:33.962Z,4.38
2023-02-19T02:39:05.080Z,3.78
2023-02-19T02:41:35.864Z,4.05
2023-02-19T02:44:02.716Z,3.67
2023-02-19T02:46:34.506Z,3.78
2023-02-19T02:49:10.734Z,3.97
2023-02-19T02:51:45.747Z,3.65
2023-02-19T02:54:41.523Z,3.75
2023-02-19T02:57:14.979Z,2.83
2023-02-19T02:59:49.127Z,3.47
2023-02-19T03:02:25.156Z,3.60
2023-02-19T03:05:24.183Z,3.15
2023-02-19T03:07:57.330Z,3.60
2023-02-19T03:10:42.767Z,3.83
2023-02-19T03:13:33.003Z,3.67
2023-02-19T03:16:28.452Z,3.78
2023-02-19T03:19:18.397Z,3.20
2023-02-19T03:21:53.209Z,3.42
2023-02-19T03:24:45.340Z,3.43
2023-02-19T03:27:14.410Z,3.55
2023-02-19T03:29:47.312Z,3.30
2023-02-19T03:32:34.332Z,3.42
2023-02-19T03:35:07.657Z,3.70
2023-02-19T03:38:18.546Z,4.07
2023-02-19T03:41:24.214Z,4.25
2023-02-19T03:44:09.165Z,4.18
2023-02-19T03:46:45.472Z,3.63
2023-02-19T03:49:40.881Z,4.40
2023-02-19T03:52:22.084Z,4.67
2023-02-19T03:55:03.683Z,3.85
2023-02-19T03:57:39.318Z,3.63
2023-02-19T04:00:23.725Z,4.25
2023-02-19T04:03:11.906Z,5.25
2023-02-19T04:05:46.098Z,3.63
2023-02-19T04:08:17.232Z,3.75
2023-02-19T04:10:50.426Z,3.60
2023-02-19T04:13:42.095Z,4.35
2023-02-19T04:16:13.674Z,4.00
2023-02-19T04:18:44.016Z,4.37
2023-02-19T04:21:11.588Z,3.47
2023-02-19T04:23:44.048Z,3.83
2023-02-19T04:26:12.527Z,3.65
2023-02-19T04:28:40.116Z,3.58
2023-02-19T04:31:07.131Z,3.67
2023-02-19T04:33:34.151Z,3.72
2023-02-19T04:36:00.971Z,3.92
2023-02-19T04:38:27.746Z,4.03
2023-02-19T04:40:54.492Z,3.88
2023-02-19T04:43:21.367Z,4.20
2023-02-19T04:45:48.148Z,4.18
2023-02-19T04:48:14.909Z,4.05
2023-02-19T04:50:41.717Z,3.63
2023-02-19T04:53:08.632Z,3.63
2023-02-19T04:55:39.631Z,3.90
2023-02-19T04:58:06.401Z,4.05
2023-02-19T05:00:34.087Z,3.65
2023-02-19T05:03:01.496Z,5.03
2023-02-19T05:05:28.346Z,3.90
2023-02-19T05:07:55.092Z,3.37
2023-02-19T05:10:21.873Z,3.85
2023-02-19T05:12:48.665Z,3.30
2023-02-19T05:15:15.428Z,3.70
2023-02-19T05:17:42.149Z,3.95
2023-02-19T05:20:09.378Z,3.73
2023-02-19T05:22:36.172Z,3.78
2023-02-19T05:25:03.016Z,2.70
2023-02-19T05:27:30.903Z,3.67
2023-02-19T05:29:57.695Z,3.60
2023-02-19T05:32:24.515Z,3.80
2023-02-19T05:34:51.616Z,3.78
2023-02-19T05:37:18.399Z,3.50
2023-02-19T05:39:45.179Z,3.65
2023-02-19T05:42:13.910Z,3.38
2023-02-19T05:44:40.962Z,3.37
2023-02-19T05:47:07.755Z,3.97
2023-02-19T05:49:34.489Z,3.72
2023-02-19T05:52:01.317Z,3.55
2023-02-19T05:54:32.052Z,3.92
2023-02-19T05:56:58.843Z,3.77
2023-02-19T05:59:26.660Z,3.65
2023-02-19T06:01:54.910Z,3.35
2023-02-19T06:04:22.047Z,3.75
2023-02-19T06:06:49.347Z,3.13
2023-02-19T06:09:16.182Z,3.87
2023-02-19T06:11:43.586Z,3.97
2023-02-19T06:14:14.880Z,4.30
2023-02-19T06:16:41.923Z,3.95
2023-02-19T06:19:09.159Z,4.35
2023-02-19T06:21:35.994Z,4.20
2023-02-19T06:24:08.214Z,4.90
2023-02-19T06:26:35.422Z,4.43
2023-02-19T06:29:02.245Z,5.20
2023-02-19T06:31:29.084Z,4.97
2023-02-19T06:33:55.965Z,4.80
2023-02-19T06:36:23.888Z,4.32
2023-02-19T06:38:50.816Z,4.55
2023-02-19T06:41:18.116Z,4.03
2023-02-19T06:43:46.384Z,4.28
2023-02-19T06:46:13.669Z,4.43
2023-02-19T06:48:42.553Z,4.28
2023-02-19T06:51:12.976Z,4.90
2023-02-19T06:53:39.936Z,4.60
2023-02-19T06:56:20.733Z,4.28
2023-02-19T06:58:47.522Z,5.30
2023-02-19T07:01:14.326Z,4.88
2023-02-19T07:03:41.124Z,4.70
2023-02-19T07:06:08.319Z,5.85
2023-02-19T07:08:35.148Z,5.70
2023-02-19T07:11:01.848Z,5.60
2023-02-19T07:13:28.603Z,5.60
2023-02-19T07:15:59.966Z,5.13
2023-02-19T07:18:26.997Z,5.47
2023-02-19T07:20:53.710Z,5.43
2023-02-19T07:23:20.558Z,4.87
2023-02-19T07:25:47.303Z,5.78
2023-02-19T07:28:14.061Z,5.97
2023-02-19T07:30:40.847Z,5.35
2023-02-19T07:33:10.294Z,6.35
2023-02-19T07:35:37.205Z,5.43
2023-02-19T07:38:04.002Z,5.80
2023-02-19T07:40:30.728Z,5.43
2023-02-19T07:42:59.529Z,5.50
2023-02-19T07:45:26.339Z,5.47
2023-02-19T07:47:53.036Z,6.40
2023-02-19T07:50:19.745Z,4.85
2023-02-19T07:52:46.510Z,5.40
2023-02-19T07:55:13.252Z,5.60
2023-02-19T07:57:39.941Z,5.18
2023-02-19T08:00:07.020Z,6.07
2023-02-19T08:02:57.782Z,6.47
2023-02-19T08:05:24.525Z,5.80
2023-02-19T08:07:51.323Z,7.28
2023-02-19T08:10:36.499Z,7.38
2023-02-19T08:13:22.620Z,7.03
2023-02-19T08:15:55.144Z,7.32
2023-02-19T08:18:25.404Z,7.45
2023-02-19T08:20:52.871Z,7.68
2023-02-19T08:23:22.777Z,7.53
2023-02-19T08:25:51.187Z,7.67
2023-02-19T08:28:19.249Z,6.22
2023-02-19T08:30:47.449Z,7.43
2023-02-19T08:33:16.812Z,6.82
2023-02-19T08:35:43.876Z,7.05
2023-02-19T08:38:12.078Z,7.40
2023-02-19T08:40:40.207Z,6.22
2023-02-19T08:43:12.772Z,7.22
2023-02-19T08:45:41.662Z,5.63
2023-02-19T08:48:09.264Z,6.50
2023-02-19T08:50:36.122Z,7.23
2023-02-19T08:53:04.141Z,7.93
2023-02-19T08:55:30.906Z,7.00
2023-02-19T08:57:57.940Z,7.70
2023-02-19T09:00:24.779Z,8.52
2023-02-19T09:02:51.513Z,7.77
2023-02-19T09:05:18.335Z,7.38
2023-02-19T09:07:45.028Z,8.35
2023-02-19T09:10:14.034Z,8.13
2023-02-19T09:12:41.139Z,8.27
2023-02-19T09:15:08.346Z,7.67
2023-02-19T09:17:35.096Z,7.70
2023-02-19T09:20:01.793Z,8.18
2023-02-19T09:22:28.568Z,7.72
2023-02-19T09:24:55.532Z,8.50
2023-02-19T09:27:22.320Z,7.47
2023-02-19T09:29:49.037Z,7.25
2023-02-19T09:32:17.152Z,9.60
2023-02-19T09:34:45.648Z,8.95
2023-02-19T09:37:12.438Z,8.05
2023-02-19T09:39:39.148Z,8.37
2023-02-19T09:42:17.756Z,8.32
2023-02-19T09:44:48.370Z,6.65
2023-02-19T09:47:21.228Z,6.57
2023-02-19T09:49:51.286Z,6.60
2023-02-19T09:52:29.134Z,6.43
2023-02-19T09:54:59.431Z,6.18
2023-02-19T09:57:28.229Z,6.32
2023-02-19T10:00:05.095Z,5.47
2023-02-19T10:02:32.191Z,4.50
2023-02-19T10:04:59.532Z,4.60
2023-02-19T10:07:39.272Z,3.10
2023-02-19T10:10:15.105Z,2.15
2023-02-19T10:12:47.126Z,1.85
2023-02-19T10:15:33.490Z,1.67
2023-02-19T10:18:00.452Z,1.83
2023-02-19T10:20:27.975Z,2.13
2023-02-19T10:23:03.842Z,2.13
2023-02-19T10:25:32.035Z,1.75
2023-02-19T10:28:02.701Z,2.20
2023-02-19T10:30:35.657Z,1.70
2023-02-19T10:33:15.301Z,1.88
2023-02-19T10:35:57.306Z,1.95
2023-02-19T10:38:40.023Z,1.80
2023-02-19T10:41:20.787Z,1.98
2023-02-19T10:43:56.479Z,1.40
2023-02-19T10:46:26.982Z,2.00
2023-02-19T10:48:58.022Z,1.50
2023-02-19T10:51:40.609Z,1.00
2023-02-19T10:54:32.768Z,1.30
2023-02-19T10:57:15.920Z,1.53
2023-02-19T11:00:01.800Z,1.70
2023-02-19T11:02:30.973Z,1.98
2023-02-19T11:05:19.946Z,1.80
2023-02-19T11:07:54.814Z,1.77
2023-02-19T11:10:28.874Z,2.40
2023-02-19T11:13:01.542Z,2.30
2023-02-19T11:15:36.358Z,2.00
2023-02-19T11:18:11.862Z,2.20
2023-02-19T11:20:49.280Z,2.35
2023-02-19T11:23:22.215Z,2.33
2023-02-19T11:25:51.001Z,2.10
2023-02-19T11:28:32.735Z,2.28
2023-02-19T11:31:34.154Z,1.92
2023-02-19T11:34:20.966Z,1.50
2023-02-19T11:36:54.308Z,1.53
2023-02-19T11:39:28.921Z,1.60
2023-02-19T11:42:12.600Z,1.52
2023-02-19T11:45:05.670Z,1.52
2023-02-19T11:47:51.077Z,1.80
2023-02-19T11:50:45.291Z,1.57
2023-02-19T11:53:37.270Z,1.55
2023-02-19T11:56:35.957Z,1.60
2023-02-19T11:59:05.283Z,1.88
2023-02-19T12:01:35.065Z,1.35
2023-02-19T12:04:25.502Z,1.80
2023-02-19T12:07:06.489Z,1.90
2023-02-19T12:10:14.540Z,1.98
2023-02-19T12:12:49.368Z,1.88
2023-02-19T12:15:20.097Z,1.70
2023-02-19T12:18:07.701Z,1.53
2023-02-19T12:20:52.510Z,1.50
2023-02-19T12:23:19.175Z,5.10
2023-02-19T12:26:21.404Z,3.88
2023-02-19T12:29:16.282Z,1.83
2023-02-19T12:32:37.611Z,1.90
2023-02-19T12:35:26.896Z,2.10
2023-02-19T12:38:16.600Z,2.55
2023-02-19T12:41:15.640Z,2.20
2023-02-19T12:43:52.867Z,1.63
2023-02-19T12:46:27.824Z,1.67
2023-02-19T12:49:33.498Z,1.70
2023-02-19T12:52:15.607Z,1.40
2023-02-19T12:54:45.602Z,1.30
2023-02-19T12:57:24.223Z,1.40
2023-02-19T13:00:07.347Z,1.23
2023-02-19T13:02:41.977Z,1.60
2023-02-19T13:05:46.175Z,1.60
2023-02-19T13:08:21.200Z,1.42
2023-02-19T13:10:56.509Z,1.90
2023-02-19T13:13:42.626Z,1.70
2023-02-19T13:16:18.730Z,1.67
2023-02-19T13:18:53.989Z,2.03
2023-02-19T13:21:50.531Z,1.50
2023-02-19T13:24:40.870Z,1.63
2023-02-19T13:27:37.005Z,2.30
2023-02-19T13:30:28.286Z,1.60
2023-02-19T13:32:57.779Z,1.50
2023-02-19T13:35:41.160Z,1.67
2023-02-19T13:38:11.971Z,1.50
2023-02-19T13:40:52.275Z,1.83
2023-02-19T13:43:29.161Z,1.48
2023-02-19T13:46:08.457Z,1.50
2023-02-19T13:48:37.984Z,1.52
2023-02-19T13:51:21.557Z,1.65
2023-02-19T13:53:49.308Z,1.40
2023-02-19T13:56:34.239Z,1.67
2023-02-19T13:59:25.737Z,1.35
2023-02-19T14:01:58.537Z,1.40
2023-02-19T14:05:07.475Z,1.50
2023-02-19T14:07:55.431Z,1.27
2023-02-19T14:10:57.952Z,1.13
2023-02-19T14:13:49.338Z,1.75
2023-02-19T14:16:28.281Z,0.93
2023-02-19T14:18:56.259Z,1.23
2023-02-19T14:21:37.526Z,1.37
2023-02-19T14:24:05.248Z,1.30
2023-02-19T14:26:33.943Z,1.30
2023-02-19T14:29:01.557Z,1.10
2023-02-19T14:31:38.234Z,1.60
2023-02-19T14:34:13.899Z,1.00
2023-02-19T14:36:48.842Z,1.10
2023-02-19T14:39:37.870Z,1.00
2023-02-19T14:42:15.901Z,1.60
2023-02-19T14:44:49.914Z,1.10
2023-02-19T14:47:20.968Z,1.17
2023-02-19T14:50:01.467Z,0.90
2023-02-19T14:52:36.636Z,1.00
2023-02-19T14:55:35.103Z,0.80
2023-02-19T14:58:07.394Z,0.80
2023-02-19T15:00:40.971Z,0.90
2023-02-19T15:03:34.487Z,0.98
2023-02-19T15:06:08.318Z,0.93
2023-02-19T15:08:45.158Z,0.90
2023-02-19T15:11:17.975Z,0.90
2023-02-19T15:13:52.188Z,1.10
2023-02-19T15:16:21.156Z,0.95
2023-02-19T15:18:50.055Z,1.20
2023-02-19T15:21:25.628Z,0.90
2023-02-19T15:24:04.148Z,1.17
2023-02-19T15:26:52.170Z,1.20
2023-02-19T15:29:24.926Z,1.20
2023-02-19T15:31:56.238Z,1.15
2023-02-19T15:34:27.829Z,0.90
2023-02-19T15:37:00.320Z,1.70
2023-02-19T15:39:35.056Z,1.10
2023-02-19T15:42:03.946Z,1.40
2023-02-19T15:44:57.849Z,1.67
2023-02-19T15:47:36.566Z,1.60
2023-02-19T15:50:15.299Z,1.48
2023-02-19T15:52:59.603Z,1.77
2023-02-19T15:55:35.032Z,1.48
2023-02-19T15:58:31.903Z,1.33
2023-02-19T16:01:08.301Z,1.15
2023-02-19T16:03:35.832Z,1.40
2023-02-19T16:06:11.275Z,1.60
2023-02-19T16:08:40.368Z,1.33
2023-02-19T16:11:23.365Z,1.50
2023-02-19T16:13:51.802Z,1.75
2023-02-19T16:16:46.026Z,1.92
2023-02-19T16:19:12.883Z,2.20
2023-02-19T16:21:43.622Z,1.42
2023-02-19T16:24:26.018Z,1.73
2023-02-19T16:26:52.955Z,2.20
2023-02-19T16:29:31.679Z,2.33
2023-02-19T16:32:01.429Z,3.00
2023-02-19T16:34:34.234Z,2.10
2023-02-19T16:37:02.732Z,2.17
2023-02-19T16:39:30.273Z,2.60
2023-02-19T16:42:00.121Z,1.60
2023-02-19T16:44:31.047Z,1.73
2023-02-19T16:47:02.336Z,2.20
2023-02-19T16:49:29.223Z,2.45
2023-02-19T16:51:56.925Z,2.40
2023-02-19T16:54:23.633Z,2.42
2023-02-19T16:56:50.348Z,3.00
2023-02-19T16:59:17.029Z,3.00
2023-02-19T17:01:43.908Z,2.70
2023-02-19T17:04:13.178Z,2.95
2023-02-19T17:06:40.312Z,2.80
2023-02-19T17:09:08.567Z,2.90
2023-02-19T17:11:35.953Z,2.47
2023-02-19T17:14:03.088Z,2.50
2023-02-19T17:16:34.270Z,2.50
2023-02-19T17:19:02.203Z,2.30
2023-02-19T17:21:31.836Z,2.87
2023-02-19T17:23:58.553Z,2.63
2023-02-19T17:26:28.200Z,2.63
2023-02-19T17:29:02.638Z,2.30
2023-02-19T17:31:29.674Z,2.92
2023-02-19T17:33:56.452Z,2.60
2023-02-19T17:36:33.878Z,2.08
2023-02-19T17:39:02.459Z,2.42
2023-02-19T17:41:29.338Z,2.35
2023-02-19T17:43:56.146Z,2.58
2023-02-19T17:46:25.491Z,2.83
2023-02-19T17:48:53.638Z,2.80
2023-02-19T17:51:20.889Z,2.75
2023-02-19T17:53:47.666Z,2.33
2023-02-19T17:56:19.714Z,2.60
2023-02-19T17:58:46.961Z,2.67
2023-02-19T18:01:14.320Z,2.20
2023-02-19T18:03:41.298Z,2.10
2023-02-19T18:06:08.406Z,2.10
2023-02-19T18:08:35.780Z,2.25
2023-02-19T18:11:03.005Z,2.13
2023-02-19T18:13:29.818Z,1.83
2023-02-19T18:15:56.554Z,1.85
2023-02-19T18:18:23.276Z,1.60
2023-02-19T18:20:50.440Z,2.20
2023-02-19T18:23:17.375Z,2.37
2023-02-19T18:25:44.135Z,2.05
2023-02-19T18:28:11.048Z,2.25
2023-02-19T18:30:37.910Z,2.75
2023-02-19T18:33:05.063Z,2.47
2023-02-19T18:35:33.667Z,2.57
2023-02-19T18:38:01.674Z,2.72
2023-02-19T18:40:28.893Z,2.13
2023-02-19T18:42:56.043Z,2.40
2023-02-19T18:45:22.947Z,2.00
2023-02-19T18:47:50.821Z,2.13
2023-02-19T18:50:18.954Z,2.35
2023-02-19T18:52:45.770Z,2.40
2023-02-19T18:55:13.186Z,2.00
2023-02-19T18:57:39.945Z,2.20
2023-02-19T19:00:07.546Z,2.33
2023-02-19T19:02:48.401Z,2.10
2023-02-19T19:05:24.005Z,1.65
2023-02-19T19:07:52.833Z,1.90
2023-02-19T19:10:20.207Z,2.10
2023-02-19T19:12:47.184Z,4.20
2023-02-19T19:15:17.089Z,2.70
2023-02-19T19:17:44.962Z,2.53
2023-02-19T19:20:11.983Z,2.35
2023-02-19T19:22:39.115Z,3.33
2023-02-19T19:25:06.224Z,3.33
2023-02-19T19:27:32.941Z,2.83
2023-02-19T19:29:59.679Z,3.10
2023-02-19T19:32:26.395Z,2.78
2023-02-19T19:34:53.207Z,3.00
2023-02-19T19:37:19.944Z,2.97
2023-02-19T19:39:46.678Z,3.83
2023-02-19T19:42:13.440Z,3.75
2023-02-19T19:44:40.135Z,3.10
2023-02-19T19:47:06.851Z,2.70
2023-02-19T19:49:33.684Z,2.50
2023-02-19T19:52:01.142Z,2.33
2023-02-19T19:54:28.683Z,2.45
2023-02-19T19:56:55.630Z,2.78
2023-02-19T19:59:23.093Z,2.20
2023-02-19T20:01:57.007Z,2.37
2023-02-19T20:04:25.149Z,2.10
2023-02-19T20:06:52.123Z,2.28
2023-02-19T20:09:19.346Z,2.08
2023-02-19T20:11:51.434Z,2.10
2023-02-19T20:14:20.095Z,2.57
2023-02-19T20:16:47.616Z,2.33
2023-02-19T20:19:15.652Z,2.10
2023-02-19T20:21:50.177Z,2.45
2023-02-19T20:24:26.198Z,2.53
2023-02-19T20:26:59.209Z,2.47
2023-02-19T20:29:31.633Z,2.67
2023-02-19T20:32:00.012Z,2.10
2023-02-19T20:34:27.317Z,2.20
2023-02-19T20:36:54.407Z,2.25
2023-02-19T20:39:22.151Z,2.30
2023-02-19T20:41:51.007Z,2.88
2023-02-19T20:44:19.160Z,2.88
2023-02-19T20:46:48.616Z,2.80
2023-02-19T20:49:17.364Z,2.72
2023-02-19T20:51:49.963Z,3.43
2023-02-19T20:54:20.873Z,3.00
2023-02-19T20:56:50.173Z,3.10
2023-02-19T20:59:18.113Z,2.75
2023-02-19T21:01:44.980Z,3.45
2023-02-19T21:04:11.837Z,4.27
2023-02-19T21:06:39.125Z,4.15
2023-02-19T21:09:06.380Z,3.33
2023-02-19T21:11:33.347Z,3.28
2023-02-19T21:14:00.188Z,3.38
2023-02-19T21:16:28.766Z,3.33
2023-02-19T21:18:55.890Z,3.95
2023-02-19T21:21:25.446Z,3.63
2023-02-19T21:23:56.615Z,3.38
2023-02-19T21:26:24.416Z,3.58
2023-02-19T21:28:51.987Z,3.80
2023-02-19T21:31:19.777Z,3.40
2023-02-19T21:33:47.014Z,2.95
2023-02-19T21:36:14.730Z,3.03
2023-02-19T21:38:41.443Z,3.10
2023-02-19T21:41:08.179Z,3.10
2023-02-19T21:43:34.882Z,3.40
2023-02-19T21:46:01.722Z,3.40
2023-02-19T21:48:28.487Z,2.55
2023-02-19T21:50:55.211Z,2.60
2023-02-19T21:53:21.908Z,2.80
2023-02-19T21:55:58.297Z,3.10
2023-02-19T21:58:26.205Z,2.75
2023-02-19T22:00:54.009Z,2.60
2023-02-19T22:03:21.053Z,3.05
2023-02-19T22:05:47.778Z,2.77
2023-02-19T22:08:15.849Z,3.05
2023-02-19T22:10:42.864Z,3.45
2023-02-19T22:13:10.432Z,2.88
2023-02-19T22:15:37.495Z,2.88
2023-02-19T22:18:04.511Z,3.43
2023-02-19T22:20:31.229Z,3.72
2023-02-19T22:22:57.941Z,2.92
2023-02-19T22:25:24.636Z,3.28
2023-02-19T22:27:51.398Z,3.42
2023-02-19T22:30:18.249Z,3.40
2023-02-19T22:32:45.004Z,3.88
2023-02-19T22:35:11.889Z,4.05
2023-02-19T22:37:38.846Z,3.70
2023-02-19T22:40:06.216Z,3.70
2023-02-19T22:42:35.682Z,3.40
2023-02-19T22:45:02.846Z,3.08
2023-02-19T22:47:29.666Z,3.75
2023-02-19T22:49:56.438Z,4.50
2023-02-19T22:52:27.908Z,3.80
2023-02-19T22:54:55.682Z,3.73
2023-02-19T22:57:22.564Z,3.72
2023-02-19T22:59:49.546Z,4.13
2023-02-19T23:02:16.633Z,4.03
2023-02-19T23:04:43.591Z,4.15
2023-02-19T23:07:10.344Z,4.00
2023-02-19T23:09:37.082Z,4.47
2023-02-19T23:12:09.543Z,4.35
2023-02-19T23:14:37.618Z,4.38
2023-02-19T23:17:04.476Z,4.13
2023-02-19T23:19:31.944Z,4.17
2023-02-19T23:21:58.804Z,4.53
2023-02-19T23:24:25.505Z,4.00
2023-02-19T23:26:53.156Z,4.50
2023-02-19T23:29:24.382Z,5.13
2023-02-19T23:31:54.332Z,5.90
2023-02-19T23:34:22.209Z,4.97
2023-02-19T23:36:50.415Z,4.47
2023-02-19T23:39:19.731Z,4.82
2023-02-19T23:41:54.841Z,5.10
2023-02-19T23:44:24.517Z,5.00
2023-02-19T23:46:52.217Z,4.55
2023-02-19T23:49:19.286Z,5.45
2023-02-19T23:51:46.128Z,4.93
2023-02-19T23:54:13.075Z,4.40
2023-02-19T23:56:39.981Z,5.80
2023-02-19T23:59:06.942Z,5.55
